sensor_id;sensor_type;location;lat;lon;timestamp;P1;durP1;ratioP1;P2;durP2;ratioP2
37051;SDS011;22964;52.272;13.356;2023-03-21T00:00:17;13.20;;;9.60;;
37051;SDS011;22964;52.272;13.356;2023-03-21T00:02:43;12.90;;;9.95;;
37051;SDS011;22964;52.272;13.356;2023-03-21T00:05:10;11.20;;;9.57;;
37051;SDS011;22964;52.272;13.356;2023-03-21T00:07:36;13.45;;;9.50;;
37051;SDS011;22964;52.272;13.356;2023-03-21T00:10:02;12.63;;;9.13;;
37051;SDS011;22964;52.272;13.356;2023-03-21T00:12:27;11.15;;;9.25;;
37051;SDS011;22964;52.272;13.356;2023-03-21T00:14:59;12.05;;;9.73;;
37051;SDS011;22964;52.272;13.356;2023-03-21T00:17:29;12.20;;;9.63;;
37051;SDS011;22964;52.272;13.356;2023-03-21T00:19:57;11.07;;;9.50;;
37051;SDS011;22964;52.272;13.356;2023-03-21T00:22:23;15.15;;;10.20;;
37051;SDS011;22964;52.272;13.356;2023-03-21T00:24:49;11.95;;;9.10;;
37051;SDS011;22964;52.272;13.356;2023-03-21T00:27:16;12.95;;;9.38;;
37051;SDS011;22964;52.272;13.356;2023-03-21T00:29:44;12.00;;;8.88;;
37051;SDS011;22964;52.272;13.356;2023-03-21T00:32:10;12.40;;;9.50;;
37051;SDS011;22964;52.272;13.356;2023-03-21T00:34:36;12.18;;;9.73;;
37051;SDS011;22964;52.272;13.356;2023-03-21T00:37:02;13.68;;;9.55;;
37051;SDS011;22964;52.272;13.356;2023-03-21T00:39:29;12.30;;;9.35;;
37051;SDS011;22964;52.272;13.356;2023-03-21T00:41:56;12.35;;;10.20;;
37051;SDS011;22964;52.272;13.356;2023-03-21T00:44:23;13.13;;;8.98;;
37051;SDS011;22964;52.272;13.356;2023-03-21T00:46:50;14.00;;;9.80;;
37051;SDS011;22964;52.272;13.356;2023-03-21T00:49:15;12.02;;;9.90;;
37051;SDS011;22964;52.272;13.356;2023-03-21T00:51:41;12.77;;;9.98;;
37051;SDS011;22964;52.272;13.356;2023-03-21T00:54:08;11.55;;;9.57;;
37051;SDS011;22964;52.272;13.356;2023-03-21T00:56:36;13.82;;;9.45;;
37051;SDS011;22964;52.272;13.356;2023-03-21T00:59:02;13.40;;;10.02;;
37051;SDS011;22964;52.272;13.356;2023-03-21T01:01:28;12.00;;;9.63;;
37051;SDS011;22964;52.272;13.356;2023-03-21T01:03:59;12.70;;;10.48;;
37051;SDS011;22964;52.272;13.356;2023-03-21T01:06:37;12.57;;;10.00;;
37051;SDS011;22964;52.272;13.356;2023-03-21T01:09:05;12.40;;;10.63;;
37051;SDS011;22964;52.272;13.356;2023-03-21T01:11:32;13.30;;;10.35;;
37051;SDS011;22964;52.272;13.356;2023-03-21T01:13:59;12.27;;;10.50;;
37051;SDS011;22964;52.272;13.356;2023-03-21T01:16:25;15.57;;;10.65;;
37051;SDS011;22964;52.272;13.356;2023-03-21T01:18:51;14.38;;;10.93;;
37051;SDS011;22964;52.272;13.356;2023-03-21T01:21:17;14.23;;;11.00;;
37051;SDS011;22964;52.272;13.356;2023-03-21T01:23:43;15.25;;;10.95;;
37051;SDS011;22964;52.272;13.356;2023-03-21T01:26:09;15.18;;;10.88;;
37051;SDS011;22964;52.272;13.356;2023-03-21T01:28:36;16.23;;;11.18;;
37051;SDS011;22964;52.272;13.356;2023-03-21T01:31:03;14.75;;;11.52;;
37051;SDS011;22964;52.272;13.356;2023-03-21T01:33:30;15.23;;;11.32;;
37051;SDS011;22964;52.272;13.356;2023-03-21T01:35:57;14.30;;;11.50;;
37051;SDS011;22964;52.272;13.356;2023-03-21T01:38:27;14.00;;;11.15;;
37051;SDS011;22964;52.272;13.356;2023-03-21T01:40:53;16.38;;;11.48;;
37051;SDS011;22964;52.272;13.356;2023-03-21T01:43:33;13.77;;;11.00;;
37051;SDS011;22964;52.272;13.356;2023-03-21T01:46:07;15.13;;;11.40;;
37051;SDS011;22964;52.272;13.356;2023-03-21T01:49:16;16.23;;;11.68;;
37051;SDS011;22964;52.272;13.356;2023-03-21T01:51:58;16.08;;;11.27;;
37051;SDS011;22964;52.272;13.356;2023-03-21T01:54:30;13.52;;;10.85;;
37051;SDS011;22964;52.272;13.356;2023-03-21T01:57:03;13.88;;;11.73;;
37051;SDS011;22964;52.272;13.356;2023-03-21T01:59:42;16.17;;;11.63;;
37051;SDS011;22964;52.272;13.356;2023-03-21T02:02:32;16.95;;;11.60;;
37051;SDS011;22964;52.272;13.356;2023-03-21T02:05:37;16.30;;;10.83;;
37051;SDS011;22964;52.272;13.356;2023-03-21T02:08:14;15.27;;;10.68;;
37051;SDS011;22964;52.272;13.356;2023-03-21T02:10:41;14.77;;;10.80;;
37051;SDS011;22964;52.272;13.356;2023-03-21T02:13:12;15.30;;;10.55;;
37051;SDS011;22964;52.272;13.356;2023-03-21T02:15:51;14.90;;;10.77;;
37051;SDS011;22964;52.272;13.356;2023-03-21T02:18:35;15.02;;;11.05;;
37051;SDS011;22964;52.272;13.356;2023-03-21T02:27:46;16.23;;;11.05;;
37051;SDS011;22964;52.272;13.356;2023-03-21T02:33:03;16.58;;;10.73;;
37051;SDS011;22964;52.272;13.356;2023-03-21T02:36:04;15.88;;;10.98;;
37051;SDS011;22964;52.272;13.356;2023-03-21T02:38:59;17.65;;;10.35;;
37051;SDS011;22964;52.272;13.356;2023-03-21T02:44:39;15.90;;;10.45;;
37051;SDS011;22964;52.272;13.356;2023-03-21T02:47:52;15.88;;;10.77;;
37051;SDS011;22964;52.272;13.356;2023-03-21T02:50:15;15.07;;;10.52;;
37051;SDS011;22964;52.272;13.356;2023-03-21T02:52:51;15.52;;;10.90;;
37051;SDS011;22964;52.272;13.356;2023-03-21T02:55:21;15.27;;;10.40;;
37051;SDS011;22964;52.272;13.356;2023-03-21T02:57:56;14.32;;;10.18;;
37051;SDS011;22964;52.272;13.356;2023-03-21T03:00:27;15.23;;;10.68;;
37051;SDS011;22964;52.272;13.356;2023-03-21T03:02:56;15.32;;;10.50;;
37051;SDS011;22964;52.272;13.356;2023-03-21T03:05:27;18.02;;;10.70;;
37051;SDS011;22964;52.272;13.356;2023-03-21T03:08:00;16.35;;;10.52;;
37051;SDS011;22964;52.272;13.356;2023-03-21T03:13:40;16.00;;;10.82;;
37051;SDS011;22964;52.272;13.356;2023-03-21T03:19:34;14.82;;;10.10;;
37051;SDS011;22964;52.272;13.356;2023-03-21T03:22:29;14.50;;;9.80;;
37051;SDS011;22964;52.272;13.356;2023-03-21T03:25:08;14.15;;;9.95;;
37051;SDS011;22964;52.272;13.356;2023-03-21T03:27:40;13.02;;;9.68;;
37051;SDS011;22964;52.272;13.356;2023-03-21T03:30:08;14.55;;;9.60;;
37051;SDS011;22964;52.272;13.356;2023-03-21T03:32:38;17.83;;;10.95;;
37051;SDS011;22964;52.272;13.356;2023-03-21T03:35:14;16.15;;;10.95;;
37051;SDS011;22964;52.272;13.356;2023-03-21T03:37:44;13.00;;;9.95;;
37051;SDS011;22964;52.272;13.356;2023-03-21T03:40:17;18.58;;;10.50;;
37051;SDS011;22964;52.272;13.356;2023-03-21T03:43:04;18.13;;;11.00;;
37051;SDS011;22964;52.272;13.356;2023-03-21T03:45:39;16.50;;;10.75;;
37051;SDS011;22964;52.272;13.356;2023-03-21T03:48:29;16.25;;;10.50;;
37051;SDS011;22964;52.272;13.356;2023-03-21T03:53:56;14.55;;;9.52;;
37051;SDS011;22964;52.272;13.356;2023-03-21T03:56:27;14.25;;;9.98;;
37051;SDS011;22964;52.272;13.356;2023-03-21T03:58:54;16.77;;;10.75;;
37051;SDS011;22964;52.272;13.356;2023-03-21T04:01:35;18.02;;;10.30;;
37051;SDS011;22964;52.272;13.356;2023-03-21T04:04:01;14.75;;;10.07;;
37051;SDS011;22964;52.272;13.356;2023-03-21T04:06:27;14.98;;;10.55;;
37051;SDS011;22964;52.272;13.356;2023-03-21T04:08:56;18.00;;;11.48;;
37051;SDS011;22964;52.272;13.356;2023-03-21T04:11:22;16.45;;;11.38;;
37051;SDS011;22964;52.272;13.356;2023-03-21T04:13:51;16.48;;;10.75;;
37051;SDS011;22964;52.272;13.356;2023-03-21T04:16:20;14.70;;;10.80;;
37051;SDS011;22964;52.272;13.356;2023-03-21T04:18:47;15.10;;;10.05;;
37051;SDS011;22964;52.272;13.356;2023-03-21T04:21:16;17.70;;;10.88;;
37051;SDS011;22964;52.272;13.356;2023-03-21T04:23:42;17.65;;;10.13;;
37051;SDS011;22964;52.272;13.356;2023-03-21T04:26:08;16.77;;;10.40;;
37051;SDS011;22964;52.272;13.356;2023-03-21T04:28:39;14.70;;;10.27;;
37051;SDS011;22964;52.272;13.356;2023-03-21T04:31:20;18.38;;;10.75;;
37051;SDS011;22964;52.272;13.356;2023-03-21T04:33:51;17.95;;;10.18;;
37051;SDS011;22964;52.272;13.356;2023-03-21T04:36:17;16.35;;;10.77;;
37051;SDS011;22964;52.272;13.356;2023-03-21T04:38:53;17.33;;;11.00;;
37051;SDS011;22964;52.272;13.356;2023-03-21T04:41:21;15.80;;;10.10;;
37051;SDS011;22964;52.272;13.356;2023-03-21T04:43:48;17.63;;;10.45;;
37051;SDS011;22964;52.272;13.356;2023-03-21T04:46:13;17.23;;;11.02;;
37051;SDS011;22964;52.272;13.356;2023-03-21T04:48:40;17.35;;;11.63;;
37051;SDS011;22964;52.272;13.356;2023-03-21T04:51:05;21.35;;;11.18;;
37051;SDS011;22964;52.272;13.356;2023-03-21T04:53:31;17.02;;;11.32;;
37051;SDS011;22964;52.272;13.356;2023-03-21T04:55:57;18.92;;;11.25;;
37051;SDS011;22964;52.272;13.356;2023-03-21T04:58:23;17.05;;;10.95;;
37051;SDS011;22964;52.272;13.356;2023-03-21T05:00:49;19.58;;;11.70;;
37051;SDS011;22964;52.272;13.356;2023-03-21T05:03:17;18.55;;;11.55;;
37051;SDS011;22964;52.272;13.356;2023-03-21T05:05:46;21.15;;;11.45;;
37051;SDS011;22964;52.272;13.356;2023-03-21T05:08:12;18.10;;;11.48;;
37051;SDS011;22964;52.272;13.356;2023-03-21T05:10:38;18.77;;;11.98;;
37051;SDS011;22964;52.272;13.356;2023-03-21T05:13:05;17.88;;;11.68;;
37051;SDS011;22964;52.272;13.356;2023-03-21T05:15:31;20.60;;;11.95;;
37051;SDS011;22964;52.272;13.356;2023-03-21T05:17:57;17.17;;;11.15;;
37051;SDS011;22964;52.272;13.356;2023-03-21T05:20:24;16.45;;;11.05;;
37051;SDS011;22964;52.272;13.356;2023-03-21T05:22:50;19.50;;;11.93;;
37051;SDS011;22964;52.272;13.356;2023-03-21T05:25:17;18.25;;;11.98;;
37051;SDS011;22964;52.272;13.356;2023-03-21T05:28:06;17.65;;;11.88;;
37051;SDS011;22964;52.272;13.356;2023-03-21T05:30:32;19.83;;;12.02;;
37051;SDS011;22964;52.272;13.356;2023-03-21T05:32:59;18.92;;;12.00;;
37051;SDS011;22964;52.272;13.356;2023-03-21T05:35:25;19.15;;;11.77;;
37051;SDS011;22964;52.272;13.356;2023-03-21T05:37:52;20.42;;;12.05;;
37051;SDS011;22964;52.272;13.356;2023-03-21T05:40:19;18.55;;;11.98;;
37051;SDS011;22964;52.272;13.356;2023-03-21T05:42:46;18.58;;;11.32;;
37051;SDS011;22964;52.272;13.356;2023-03-21T05:45:18;17.38;;;11.77;;
37051;SDS011;22964;52.272;13.356;2023-03-21T05:47:43;19.27;;;11.90;;
37051;SDS011;22964;52.272;13.356;2023-03-21T05:50:11;17.90;;;11.63;;
37051;SDS011;22964;52.272;13.356;2023-03-21T05:52:40;18.90;;;11.82;;
37051;SDS011;22964;52.272;13.356;2023-03-21T05:55:10;20.05;;;12.18;;
37051;SDS011;22964;52.272;13.356;2023-03-21T05:57:36;18.50;;;12.00;;
37051;SDS011;22964;52.272;13.356;2023-03-21T06:00:07;18.20;;;11.70;;
37051;SDS011;22964;52.272;13.356;2023-03-21T06:02:43;20.95;;;11.88;;
37051;SDS011;22964;52.272;13.356;2023-03-21T06:05:29;19.88;;;11.80;;
37051;SDS011;22964;52.272;13.356;2023-03-21T06:07:55;18.10;;;11.90;;
37051;SDS011;22964;52.272;13.356;2023-03-21T06:10:21;17.25;;;12.10;;
37051;SDS011;22964;52.272;13.356;2023-03-21T06:12:47;20.00;;;12.15;;
37051;SDS011;22964;52.272;13.356;2023-03-21T06:15:25;19.73;;;11.65;;
37051;SDS011;22964;52.272;13.356;2023-03-21T06:18:01;18.00;;;11.90;;
37051;SDS011;22964;52.272;13.356;2023-03-21T06:20:27;20.45;;;12.60;;
37051;SDS011;22964;52.272;13.356;2023-03-21T06:23:00;19.20;;;12.82;;
37051;SDS011;22964;52.272;13.356;2023-03-21T06:25:27;19.92;;;12.18;;
37051;SDS011;22964;52.272;13.356;2023-03-21T06:27:54;19.42;;;12.65;;
37051;SDS011;22964;52.272;13.356;2023-03-21T06:30:19;18.67;;;12.30;;
37051;SDS011;22964;52.272;13.356;2023-03-21T06:32:59;20.17;;;12.43;;
37051;SDS011;22964;52.272;13.356;2023-03-21T06:35:25;20.33;;;12.15;;
37051;SDS011;22964;52.272;13.356;2023-03-21T06:37:51;19.77;;;12.73;;
37051;SDS011;22964;52.272;13.356;2023-03-21T06:40:18;20.27;;;13.38;;
37051;SDS011;22964;52.272;13.356;2023-03-21T06:42:44;20.95;;;12.20;;
37051;SDS011;22964;52.272;13.356;2023-03-21T06:45:10;19.33;;;12.23;;
37051;SDS011;22964;52.272;13.356;2023-03-21T06:47:36;21.65;;;13.35;;
37051;SDS011;22964;52.272;13.356;2023-03-21T06:50:06;19.10;;;13.00;;
37051;SDS011;22964;52.272;13.356;2023-03-21T06:52:38;20.08;;;12.45;;
37051;SDS011;22964;52.272;13.356;2023-03-21T06:55:04;20.55;;;12.68;;
37051;SDS011;22964;52.272;13.356;2023-03-21T06:57:30;19.42;;;12.40;;
37051;SDS011;22964;52.272;13.356;2023-03-21T06:59:57;20.70;;;12.88;;
37051;SDS011;22964;52.272;13.356;2023-03-21T07:02:23;19.83;;;12.63;;
37051;SDS011;22964;52.272;13.356;2023-03-21T07:05:00;21.60;;;12.73;;
37051;SDS011;22964;52.272;13.356;2023-03-21T07:07:28;21.13;;;12.13;;
37051;SDS011;22964;52.272;13.356;2023-03-21T07:09:54;19.20;;;12.52;;
37051;SDS011;22964;52.272;13.356;2023-03-21T07:12:21;22.48;;;12.75;;
37051;SDS011;22964;52.272;13.356;2023-03-21T07:15:09;22.30;;;12.65;;
37051;SDS011;22964;52.272;13.356;2023-03-21T07:17:38;21.27;;;12.45;;
37051;SDS011;22964;52.272;13.356;2023-03-21T07:20:04;19.10;;;12.55;;
37051;SDS011;22964;52.272;13.356;2023-03-21T07:22:32;18.45;;;12.05;;
37051;SDS011;22964;52.272;13.356;2023-03-21T07:24:58;19.90;;;12.82;;
37051;SDS011;22964;52.272;13.356;2023-03-21T07:27:24;19.85;;;12.25;;
37051;SDS011;22964;52.272;13.356;2023-03-21T07:29:50;18.08;;;12.13;;
37051;SDS011;22964;52.272;13.356;2023-03-21T07:32:16;19.98;;;12.40;;
37051;SDS011;22964;52.272;13.356;2023-03-21T07:34:41;19.60;;;11.82;;
37051;SDS011;22964;52.272;13.356;2023-03-21T07:37:07;18.77;;;12.40;;
37051;SDS011;22964;52.272;13.356;2023-03-21T07:39:33;18.63;;;11.68;;
37051;SDS011;22964;52.272;13.356;2023-03-21T07:41:59;18.88;;;11.15;;
37051;SDS011;22964;52.272;13.356;2023-03-21T07:44:37;17.98;;;11.32;;
37051;SDS011;22964;52.272;13.356;2023-03-21T07:47:03;18.67;;;11.77;;
37051;SDS011;22964;52.272;13.356;2023-03-21T07:49:30;19.23;;;12.32;;
37051;SDS011;22964;52.272;13.356;2023-03-21T07:51:56;20.63;;;11.23;;
37051;SDS011;22964;52.272;13.356;2023-03-21T07:54:21;17.33;;;11.57;;
37051;SDS011;22964;52.272;13.356;2023-03-21T07:56:47;20.40;;;11.80;;
37051;SDS011;22964;52.272;13.356;2023-03-21T07:59:13;19.83;;;11.32;;
37051;SDS011;22964;52.272;13.356;2023-03-21T08:01:39;16.80;;;11.30;;
37051;SDS011;22964;52.272;13.356;2023-03-21T08:04:05;17.88;;;11.55;;
37051;SDS011;22964;52.272;13.356;2023-03-21T08:06:30;19.20;;;11.15;;
37051;SDS011;22964;52.272;13.356;2023-03-21T08:08:59;21.40;;;12.27;;
37051;SDS011;22964;52.272;13.356;2023-03-21T08:11:27;19.15;;;11.65;;
37051;SDS011;22964;52.272;13.356;2023-03-21T08:13:56;18.35;;;11.48;;
37051;SDS011;22964;52.272;13.356;2023-03-21T08:16:22;21.45;;;11.77;;
37051;SDS011;22964;52.272;13.356;2023-03-21T08:18:48;17.60;;;11.77;;
37051;SDS011;22964;52.272;13.356;2023-03-21T08:21:14;17.83;;;11.52;;
37051;SDS011;22964;52.272;13.356;2023-03-21T08:23:41;20.13;;;12.73;;
37051;SDS011;22964;52.272;13.356;2023-03-21T08:26:07;20.25;;;13.07;;
37051;SDS011;22964;52.272;13.356;2023-03-21T08:28:33;20.17;;;12.20;;
37051;SDS011;22964;52.272;13.356;2023-03-21T08:31:05;17.80;;;12.05;;
37051;SDS011;22964;52.272;13.356;2023-03-21T08:33:33;18.73;;;12.40;;
37051;SDS011;22964;52.272;13.356;2023-03-21T08:35:59;20.42;;;13.40;;
37051;SDS011;22964;52.272;13.356;2023-03-21T08:38:25;19.73;;;12.48;;
37051;SDS011;22964;52.272;13.356;2023-03-21T08:41:00;18.70;;;12.10;;
37051;SDS011;22964;52.272;13.356;2023-03-21T08:43:27;18.92;;;11.48;;
37051;SDS011;22964;52.272;13.356;2023-03-21T08:45:53;18.20;;;11.68;;
37051;SDS011;22964;52.272;13.356;2023-03-21T08:48:19;18.38;;;11.20;;
37051;SDS011;22964;52.272;13.356;2023-03-21T08:50:45;18.77;;;12.52;;
37051;SDS011;22964;52.272;13.356;2023-03-21T08:53:11;17.23;;;11.93;;
37051;SDS011;22964;52.272;13.356;2023-03-21T08:55:37;17.75;;;11.18;;
37051;SDS011;22964;52.272;13.356;2023-03-21T08:58:02;18.30;;;11.60;;
37051;SDS011;22964;52.272;13.356;2023-03-21T09:00:28;17.75;;;11.35;;
37051;SDS011;22964;52.272;13.356;2023-03-21T09:02:54;17.65;;;11.60;;
37051;SDS011;22964;52.272;13.356;2023-03-21T09:05:22;16.67;;;11.20;;
37051;SDS011;22964;52.272;13.356;2023-03-21T09:07:49;17.20;;;11.23;;
37051;SDS011;22964;52.272;13.356;2023-03-21T09:10:18;16.10;;;11.20;;
37051;SDS011;22964;52.272;13.356;2023-03-21T09:12:44;17.23;;;11.10;;
37051;SDS011;22964;52.272;13.356;2023-03-21T09:15:11;19.02;;;10.73;;
37051;SDS011;22964;52.272;13.356;2023-03-21T09:17:38;17.38;;;10.52;;
37051;SDS011;22964;52.272;13.356;2023-03-21T09:20:08;16.10;;;10.45;;
37051;SDS011;22964;52.272;13.356;2023-03-21T09:22:36;16.90;;;10.77;;
37051;SDS011;22964;52.272;13.356;2023-03-21T09:25:03;18.05;;;10.40;;
37051;SDS011;22964;52.272;13.356;2023-03-21T09:27:32;15.27;;;10.55;;
37051;SDS011;22964;52.272;13.356;2023-03-21T09:29:58;15.07;;;10.15;;
37051;SDS011;22964;52.272;13.356;2023-03-21T09:32:24;15.25;;;10.05;;
37051;SDS011;22964;52.272;13.356;2023-03-21T09:34:51;15.27;;;9.95;;
37051;SDS011;22964;52.272;13.356;2023-03-21T09:37:17;14.68;;;9.75;;
37051;SDS011;22964;52.272;13.356;2023-03-21T09:39:42;13.98;;;9.15;;
37051;SDS011;22964;52.272;13.356;2023-03-21T09:47:36;14.00;;;9.25;;
37051;SDS011;22964;52.272;13.356;2023-03-21T09:50:50;12.48;;;8.95;;
37051;SDS011;22964;52.272;13.356;2023-03-21T09:53:10;14.48;;;9.00;;
37051;SDS011;22964;52.272;13.356;2023-03-21T09:55:47;14.43;;;8.73;;
37051;SDS011;22964;52.272;13.356;2023-03-21T09:58:27;14.20;;;9.27;;
37051;SDS011;22964;52.272;13.356;2023-03-21T10:03:31;15.65;;;8.50;;
37051;SDS011;22964;52.272;13.356;2023-03-21T10:06:05;12.43;;;8.70;;
37051;SDS011;22964;52.272;13.356;2023-03-21T10:08:39;12.50;;;8.60;;
37051;SDS011;22964;52.272;13.356;2023-03-21T10:11:11;11.75;;;8.35;;
37051;SDS011;22964;52.272;13.356;2023-03-21T10:13:50;11.48;;;8.15;;
37051;SDS011;22964;52.272;13.356;2023-03-21T10:16:27;12.50;;;8.50;;
37051;SDS011;22964;52.272;13.356;2023-03-21T10:19:10;12.60;;;8.40;;
37051;SDS011;22964;52.272;13.356;2023-03-21T10:21:42;13.55;;;8.50;;
37051;SDS011;22964;52.272;13.356;2023-03-21T10:24:13;13.32;;;8.73;;
37051;SDS011;22964;52.272;13.356;2023-03-21T10:26:47;12.07;;;8.60;;
37051;SDS011;22964;52.272;13.356;2023-03-21T10:29:15;12.48;;;8.75;;
37051;SDS011;22964;52.272;13.356;2023-03-21T10:31:43;11.40;;;8.05;;
37051;SDS011;22964;52.272;13.356;2023-03-21T10:34:18;11.43;;;7.95;;
37051;SDS011;22964;52.272;13.356;2023-03-21T10:36:51;11.98;;;8.02;;
37051;SDS011;22964;52.272;13.356;2023-03-21T10:41:57;12.07;;;7.97;;
37051;SDS011;22964;52.272;13.356;2023-03-21T10:44:27;13.65;;;8.52;;
37051;SDS011;22964;52.272;13.356;2023-03-21T10:46:56;12.32;;;8.32;;
37051;SDS011;22964;52.272;13.356;2023-03-21T10:49:23;12.77;;;8.52;;
37051;SDS011;22964;52.272;13.356;2023-03-21T10:51:54;12.80;;;7.97;;
37051;SDS011;22964;52.272;13.356;2023-03-21T10:54:25;11.30;;;7.80;;
37051;SDS011;22964;52.272;13.356;2023-03-21T10:56:57;12.00;;;8.37;;
37051;SDS011;22964;52.272;13.356;2023-03-21T11:02:04;11.13;;;7.65;;
37051;SDS011;22964;52.272;13.356;2023-03-21T11:04:39;10.43;;;7.32;;
37051;SDS011;22964;52.272;13.356;2023-03-21T11:07:10;11.20;;;7.55;;
37051;SDS011;22964;52.272;13.356;2023-03-21T11:09:57;10.40;;;7.05;;
37051;SDS011;22964;52.272;13.356;2023-03-21T11:12:28;10.15;;;6.88;;
37051;SDS011;22964;52.272;13.356;2023-03-21T11:14:57;11.88;;;7.38;;
37051;SDS011;22964;52.272;13.356;2023-03-21T11:17:49;9.85;;;7.03;;
37051;SDS011;22964;52.272;13.356;2023-03-21T11:20:16;13.02;;;7.43;;
37051;SDS011;22964;52.272;13.356;2023-03-21T11:22:43;9.02;;;6.68;;
37051;SDS011;22964;52.272;13.356;2023-03-21T11:25:19;9.43;;;6.70;;
37051;SDS011;22964;52.272;13.356;2023-03-21T11:28:06;9.98;;;6.57;;
37051;SDS011;22964;52.272;13.356;2023-03-21T11:30:36;9.80;;;6.77;;
37051;SDS011;22964;52.272;13.356;2023-03-21T11:33:12;9.73;;;6.68;;
37051;SDS011;22964;52.272;13.356;2023-03-21T11:35:38;11.02;;;6.75;;
37051;SDS011;22964;52.272;13.356;2023-03-21T11:38:04;9.20;;;6.72;;
37051;SDS011;22964;52.272;13.356;2023-03-21T11:40:55;10.15;;;6.50;;
37051;SDS011;22964;52.272;13.356;2023-03-21T11:43:28;8.13;;;5.97;;
37051;SDS011;22964;52.272;13.356;2023-03-21T11:45:57;9.65;;;6.57;;
37051;SDS011;22964;52.272;13.356;2023-03-21T11:48:25;9.32;;;6.15;;
37051;SDS011;22964;52.272;13.356;2023-03-21T11:51:03;8.95;;;6.40;;
37051;SDS011;22964;52.272;13.356;2023-03-21T11:53:38;8.70;;;5.80;;
37051;SDS011;22964;52.272;13.356;2023-03-21T11:56:15;9.05;;;6.30;;
37051;SDS011;22964;52.272;13.356;2023-03-21T12:15:35;6.97;;;5.25;;
37051;SDS011;22964;52.272;13.356;2023-03-21T12:20:55;7.57;;;4.90;;
37051;SDS011;22964;52.272;13.356;2023-03-21T12:23:41;7.78;;;4.85;;
37051;SDS011;22964;52.272;13.356;2023-03-21T12:26:21;6.55;;;5.15;;
37051;SDS011;22964;52.272;13.356;2023-03-21T12:32:24;6.50;;;4.78;;
37051;SDS011;22964;52.272;13.356;2023-03-21T12:42:58;5.97;;;4.22;;
37051;SDS011;22964;52.272;13.356;2023-03-21T12:45:47;6.13;;;4.63;;
37051;SDS011;22964;52.272;13.356;2023-03-21T12:48:27;6.35;;;4.90;;
37051;SDS011;22964;52.272;13.356;2023-03-21T12:51:02;6.55;;;4.88;;
37051;SDS011;22964;52.272;13.356;2023-03-21T12:56:28;7.60;;;4.78;;
37051;SDS011;22964;52.272;13.356;2023-03-21T13:01:50;6.13;;;4.78;;
37051;SDS011;22964;52.272;13.356;2023-03-21T13:04:26;6.07;;;4.38;;
37051;SDS011;22964;52.272;13.356;2023-03-21T13:07:06;9.52;;;4.70;;
37051;SDS011;22964;52.272;13.356;2023-03-21T13:09:38;8.65;;;4.78;;
37051;SDS011;22964;52.272;13.356;2023-03-21T13:12:12;6.13;;;4.53;;
37051;SDS011;22964;52.272;13.356;2023-03-21T13:17:49;6.47;;;4.35;;
37051;SDS011;22964;52.272;13.356;2023-03-21T13:20:59;6.80;;;4.28;;
37051;SDS011;22964;52.272;13.356;2023-03-21T13:23:35;6.90;;;4.63;;
37051;SDS011;22964;52.272;13.356;2023-03-21T13:26:03;6.47;;;4.47;;
37051;SDS011;22964;52.272;13.356;2023-03-21T13:28:35;6.95;;;4.30;;
37051;SDS011;22964;52.272;13.356;2023-03-21T13:31:14;6.90;;;4.45;;
37051;SDS011;22964;52.272;13.356;2023-03-21T13:33:52;6.53;;;4.40;;
37051;SDS011;22964;52.272;13.356;2023-03-21T13:36:24;9.10;;;4.32;;
37051;SDS011;22964;52.272;13.356;2023-03-21T13:38:53;6.57;;;4.45;;
37051;SDS011;22964;52.272;13.356;2023-03-21T13:41:31;6.70;;;4.25;;
37051;SDS011;22964;52.272;13.356;2023-03-21T13:59:10;6.53;;;3.88;;
37051;SDS011;22964;52.272;13.356;2023-03-21T14:04:22;5.45;;;4.13;;
37051;SDS011;22964;52.272;13.356;2023-03-21T14:06:58;7.93;;;4.28;;
37051;SDS011;22964;52.272;13.356;2023-03-21T14:09:35;6.32;;;3.80;;
37051;SDS011;22964;52.272;13.356;2023-03-21T14:12:29;5.22;;;3.75;;
37051;SDS011;22964;52.272;13.356;2023-03-21T14:15:06;7.25;;;4.00;;
37051;SDS011;22964;52.272;13.356;2023-03-21T14:17:47;5.60;;;4.03;;
37051;SDS011;22964;52.272;13.356;2023-03-21T14:20:20;8.38;;;4.43;;
37051;SDS011;22964;52.272;13.356;2023-03-21T14:22:48;5.80;;;4.05;;
37051;SDS011;22964;52.272;13.356;2023-03-21T14:25:14;5.40;;;4.00;;
37051;SDS011;22964;52.272;13.356;2023-03-21T14:27:49;6.13;;;4.20;;
37051;SDS011;22964;52.272;13.356;2023-03-21T14:33:36;5.57;;;3.92;;
37051;SDS011;22964;52.272;13.356;2023-03-21T14:36:08;8.35;;;3.90;;
37051;SDS011;22964;52.272;13.356;2023-03-21T14:38:37;6.60;;;4.82;;
37051;SDS011;22964;52.272;13.356;2023-03-21T14:41:04;5.72;;;4.22;;
37051;SDS011;22964;52.272;13.356;2023-03-21T14:43:43;6.43;;;4.57;;
37051;SDS011;22964;52.272;13.356;2023-03-21T14:46:11;6.25;;;4.28;;
37051;SDS011;22964;52.272;13.356;2023-03-21T14:48:37;6.65;;;4.82;;
37051;SDS011;22964;52.272;13.356;2023-03-21T14:51:06;8.02;;;4.57;;
37051;SDS011;22964;52.272;13.356;2023-03-21T14:53:39;8.80;;;5.18;;
37051;SDS011;22964;52.272;13.356;2023-03-21T14:58:32;7.60;;;5.20;;
37051;SDS011;22964;52.272;13.356;2023-03-21T15:01:03;8.70;;;5.97;;
37051;SDS011;22964;52.272;13.356;2023-03-21T15:03:30;8.73;;;6.05;;
37051;SDS011;22964;52.272;13.356;2023-03-21T15:05:57;10.45;;;6.22;;
37051;SDS011;22964;52.272;13.356;2023-03-21T15:08:24;7.47;;;6.50;;
37051;SDS011;22964;52.272;13.356;2023-03-21T15:13:30;8.40;;;6.60;;
37051;SDS011;22964;52.272;13.356;2023-03-21T15:16:00;8.77;;;6.57;;
37051;SDS011;22964;52.272;13.356;2023-03-21T15:18:30;7.95;;;6.53;;
37051;SDS011;22964;52.272;13.356;2023-03-21T15:21:00;7.63;;;6.80;;
37051;SDS011;22964;52.272;13.356;2023-03-21T15:23:32;8.20;;;6.78;;
37051;SDS011;22964;52.272;13.356;2023-03-21T15:26:05;8.70;;;6.70;;
37051;SDS011;22964;52.272;13.356;2023-03-21T15:28:34;7.93;;;6.93;;
37051;SDS011;22964;52.272;13.356;2023-03-21T15:31:00;8.90;;;7.03;;
37051;SDS011;22964;52.272;13.356;2023-03-21T15:33:28;9.52;;;7.47;;
37051;SDS011;22964;52.272;13.356;2023-03-21T15:35:55;8.65;;;7.28;;
37051;SDS011;22964;52.272;13.356;2023-03-21T15:38:30;9.55;;;7.65;;
37051;SDS011;22964;52.272;13.356;2023-03-21T15:41:15;11.27;;;7.15;;
37051;SDS011;22964;52.272;13.356;2023-03-21T15:43:41;10.60;;;8.25;;
37051;SDS011;22964;52.272;13.356;2023-03-21T15:46:14;12.60;;;8.35;;
37051;SDS011;22964;52.272;13.356;2023-03-21T15:48:42;9.15;;;7.32;;
37051;SDS011;22964;52.272;13.356;2023-03-21T15:51:10;9.43;;;7.28;;
37051;SDS011;22964;52.272;13.356;2023-03-21T15:53:45;11.18;;;8.75;;
37051;SDS011;22964;52.272;13.356;2023-03-21T15:56:11;9.18;;;7.90;;
37051;SDS011;22964;52.272;13.356;2023-03-21T15:58:43;9.60;;;7.82;;
37051;SDS011;22964;52.272;13.356;2023-03-21T16:01:13;10.50;;;7.50;;
37051;SDS011;22964;52.272;13.356;2023-03-21T16:03:43;9.50;;;7.63;;
37051;SDS011;22964;52.272;13.356;2023-03-21T16:11:24;10.32;;;7.03;;
37051;SDS011;22964;52.272;13.356;2023-03-21T16:13:52;9.68;;;7.40;;
37051;SDS011;22964;52.272;13.356;2023-03-21T16:16:20;8.82;;;7.03;;
37051;SDS011;22964;52.272;13.356;2023-03-21T16:18:48;9.77;;;6.78;;
37051;SDS011;22964;52.272;13.356;2023-03-21T16:21:16;9.02;;;7.25;;
37051;SDS011;22964;52.272;13.356;2023-03-21T16:23:45;8.32;;;7.03;;
37051;SDS011;22964;52.272;13.356;2023-03-21T16:26:15;8.85;;;6.78;;